Time;durP1;ratioP1;P1;durP2;ratioP2;P2;SDS_P1;SDS_P2;PMS_P1;PMS_P2;Temp;Humidity;BMP_temperature;BMP_pressure;BME280_temperature;BME280_humidity;BME280_pressure;Samples;Min_cycle;Max_cycle;Signal;HPM_P1;HPM_P2
2023/08/01 00:00:46;;;;;;;21.02;6.90;;;16.60;99.90;;;;;;5094292;28;20126;-75
2023/08/01 00:03:13;;;;;;;35.35;7.00;;;16.60;99.90;;;;;;5107211;28;20476;-77
2023/08/01 00:05:44;;;;;;;26.00;6.63;;;16.50;99.90;;;;;;5111779;28;20570;-76
2023/08/01 00:08:12;;;;;;;17.45;5.97;;;16.50;99.90;;;;;;5104330;28;20044;-75
2023/08/01 00:10:39;;;;;;;21.17;6.03;;;16.50;99.90;;;;;;5118658;28;20055;-75
2023/08/01 00:13:04;;;;;;;20.90;5.63;;;16.50;99.90;;;;;;5116407;28;20048;-74
2023/08/01 00:15:30;;;;;;;17.95;5.72;;;16.50;99.90;;;;;;5113855;28;20046;-74
2023/08/01 00:17:56;;;;;;;19.63;6.15;;;16.50;99.90;;;;;;5113498;28;20050;-75
2023/08/01 00:20:22;;;;;;;22.70;6.97;;;16.40;99.90;;;;;;5106130;28;20051;-75
2023/08/01 00:22:47;;;;;;;17.75;5.70;;;16.50;99.90;;;;;;5100950;28;20393;-75
2023/08/01 00:25:14;;;;;;;23.58;6.88;;;16.40;99.90;;;;;;5093874;28;20119;-75
2023/08/01 00:27:40;;;;;;;15.88;5.95;;;16.40;99.90;;;;;;5103651;28;20044;-76
2023/08/01 00:30:07;;;;;;;25.27;6.05;;;16.40;99.90;;;;;;5095941;28;20047;-77
2023/08/01 00:32:33;;;;;;;19.48;6.70;;;16.40;99.90;;;;;;5113712;28;20409;-75
2023/08/01 00:34:58;;;;;;;23.25;5.70;;;16.40;99.90;;;;;;5112057;28;20043;-75
2023/08/01 00:37:24;;;;;;;21.60;6.13;;;16.40;99.90;;;;;;5114249;28;20055;-74
2023/08/01 00:39:51;;;;;;;16.95;5.68;;;16.40;99.90;;;;;;5113163;28;20046;-75
2023/08/01 00:42:16;;;;;;;18.55;5.13;;;16.40;99.90;;;;;;5109127;28;20504;-74
2023/08/01 00:44:42;;;;;;;14.35;5.60;;;16.40;99.90;;;;;;5113458;28;20044;-75
2023/08/01 00:47:09;;;;;;;12.45;5.55;;;16.30;99.90;;;;;;5112565;28;20043;-75
2023/08/01 00:49:35;;;;;;;19.73;5.57;;;16.30;99.90;;;;;;5112246;28;20063;-75
2023/08/01 00:52:01;;;;;;;22.25;6.13;;;16.30;99.90;;;;;;5113398;28;20039;-74
2023/08/01 00:54:27;;;;;;;15.32;5.82;;;16.30;99.90;;;;;;5111813;28;20396;-75
2023/08/01 00:56:53;;;;;;;15.48;5.47;;;16.30;99.90;;;;;;5112682;28;20054;-74
2023/08/01 00:59:18;;;;;;;22.60;6.32;;;16.30;99.90;;;;;;5102855;28;20119;-74
2023/08/01 01:01:44;;;;;;;21.70;6.03;;;16.20;99.90;;;;;;5096963;28;20128;-76
2023/08/01 01:04:11;;;;;;;19.33;5.72;;;16.20;99.90;;;;;;5114330;28;20032;-75
2023/08/01 01:07:10;;;;;;;20.80;5.17;;;16.20;99.90;;;;;;5109716;28;20072;-75
2023/08/01 01:09:35;;;;;;;16.17;5.28;;;16.20;99.90;;;;;;5084820;28;20052;-74
2023/08/01 01:12:01;;;;;;;17.35;5.85;;;16.10;99.90;;;;;;5104502;28;20114;-75
2023/08/01 01:14:27;;;;;;;20.67;5.38;;;16.10;99.90;;;;;;5117257;28;20444;-74
2023/08/01 01:16:53;;;;;;;11.95;5.30;;;16.10;99.90;;;;;;5116159;28;20040;-74
2023/08/01 01:19:19;;;;;;;19.00;5.45;;;16.10;99.90;;;;;;5115732;28;20068;-74
2023/08/01 01:21:46;;;;;;;13.30;5.22;;;16.10;99.90;;;;;;5108118;28;20031;-75
2023/08/01 01:24:14;;;;;;;20.05;6.00;;;16.00;99.90;;;;;;5117062;28;20044;-75
2023/08/01 01:26:41;;;;;;;16.88;5.47;;;16.00;99.90;;;;;;5112480;28;20047;-75
2023/08/01 01:29:10;;;;;;;17.13;4.97;;;16.00;99.90;;;;;;5116007;28;20043;-74
2023/08/01 01:31:37;;;;;;;17.00;4.97;;;15.90;99.90;;;;;;5116082;28;20028;-74
2023/08/01 01:34:04;;;;;;;14.23;5.28;;;15.90;99.90;;;;;;5111574;28;20125;-75
2023/08/01 01:36:29;;;;;;;23.58;5.93;;;15.80;99.90;;;;;;5107518;28;20048;-74
2023/08/01 01:38:55;;;;;;;16.75;5.90;;;15.80;99.90;;;;;;5112820;28;20400;-74
2023/08/01 01:41:22;;;;;;;14.55;5.47;;;15.80;99.90;;;;;;5093752;28;20079;-75
2023/08/01 01:43:48;;;;;;;12.95;5.22;;;15.80;99.90;;;;;;5113464;28;20545;-75
2023/08/01 01:46:13;;;;;;;20.45;5.47;;;15.80;99.90;;;;;;5112206;28;20123;-75
2023/08/01 01:48:39;;;;;;;21.00;5.95;;;15.70;99.90;;;;;;5108688;27;20072;-75
2023/08/01 01:51:05;;;;;;;19.58;6.13;;;15.70;99.90;;;;;;5112399;28;20039;-74
2023/08/01 01:53:31;;;;;;;14.93;5.65;;;15.70;99.90;;;;;;5105943;28;20036;-74
2023/08/01 01:55:56;;;;;;;17.27;6.38;;;15.60;99.90;;;;;;5104982;28;20109;-74
2023/08/01 01:58:22;;;;;;;12.25;6.10;;;15.70;99.90;;;;;;5123081;28;20054;-75
2023/08/01 02:00:49;;;;;;;19.90;6.30;;;15.60;99.90;;;;;;5121829;28;20039;-74
2023/08/01 02:03:14;;;;;;;17.20;6.05;;;15.60;99.90;;;;;;5118141;28;20032;-74
2023/08/01 02:05:41;;;;;;;15.30;6.07;;;15.60;99.90;;;;;;5121140;28;20112;-75
2023/08/01 02:08:07;;;;;;;17.42;6.03;;;15.60;99.90;;;;;;5116925;28;20378;-74
2023/08/01 02:10:33;;;;;;;13.95;6.03;;;15.60;99.90;;;;;;5114222;28;20036;-74
2023/08/01 02:12:58;;;;;;;17.17;6.10;;;15.50;99.90;;;;;;5094001;28;20405;-74
2023/08/01 02:15:24;;;;;;;15.27;6.15;;;15.50;99.90;;;;;;5114087;28;20085;-75
2023/08/01 02:17:50;;;;;;;12.48;5.88;;;15.50;99.90;;;;;;5113576;28;20098;-76
2023/08/01 02:20:16;;;;;;;15.10;5.93;;;15.50;99.90;;;;;;5118134;28;20044;-74
2023/08/01 02:22:41;;;;;;;18.40;5.45;;;15.50;99.90;;;;;;5123000;28;20104;-74
2023/08/01 02:25:07;;;;;;;12.57;6.30;;;15.40;99.90;;;;;;5122154;28;20042;-74
2023/08/01 02:27:33;;;;;;;15.07;5.68;;;15.40;99.90;;;;;;5103745;28;20046;-75
2023/08/01 02:29:59;;;;;;;16.20;5.53;;;15.40;99.90;;;;;;5106526;28;20051;-75
2023/08/01 02:32:24;;;;;;;12.73;5.68;;;15.30;99.90;;;;;;5122843;28;20036;-76
2023/08/01 02:34:50;;;;;;;17.92;5.90;;;15.30;99.90;;;;;;5078426;28;20048;-75
2023/08/01 02:37:15;;;;;;;15.23;5.28;;;15.30;99.90;;;;;;5107674;28;20040;-75
2023/08/01 02:39:41;;;;;;;15.32;4.97;;;15.30;99.90;;;;;;5077356;28;20408;-75
2023/08/01 02:42:07;;;;;;;18.38;5.57;;;15.30;99.90;;;;;;5095641;28;20040;-75
2023/08/01 02:44:32;;;;;;;13.50;6.07;;;15.30;99.90;;;;;;5096023;28;20058;-75
2023/08/01 02:46:58;;;;;;;20.50;5.60;;;15.30;99.90;;;;;;5106097;28;20109;-74
2023/08/01 02:49:24;;;;;;;14.35;5.05;;;15.20;99.90;;;;;;5114581;28;20039;-75
2023/08/01 02:51:49;;;;;;;19.23;5.85;;;15.20;99.90;;;;;;5113872;28;20043;-76
2023/08/01 02:54:15;;;;;;;16.70;5.53;;;15.20;99.90;;;;;;5103650;28;20489;-75
2023/08/01 02:56:41;;;;;;;12.55;4.68;;;15.30;99.90;;;;;;5101270;28;20042;-75
2023/08/01 02:59:08;;;;;;;15.20;5.22;;;15.20;99.90;;;;;;5115678;28;20047;-74
2023/08/01 03:01:35;;;;;;;16.97;5.07;;;15.20;99.90;;;;;;5114410;28;20087;-75
2023/08/01 03:04:03;;;;;;;14.25;5.75;;;15.20;99.90;;;;;;5099148;28;20130;-75
2023/08/01 03:06:29;;;;;;;13.88;5.95;;;15.20;99.90;;;;;;5104888;28;20044;-75
2023/08/01 03:08:54;;;;;;;15.40;5.63;;;15.40;99.90;;;;;;5115524;28;20036;-75
2023/08/01 03:11:20;;;;;;;17.13;5.43;;;15.20;99.90;;;;;;5107758;28;20036;-74
2023/08/01 03:13:46;;;;;;;16.08;5.28;;;15.20;99.90;;;;;;5116848;28;20035;-75
2023/08/01 03:16:11;;;;;;;20.20;5.68;;;15.20;99.90;;;;;;5112154;28;20071;-74
2023/08/01 03:18:37;;;;;;;14.05;5.72;;;15.20;99.90;;;;;;5114797;28;20465;-74
2023/08/01 03:21:03;;;;;;;13.95;7.15;;;15.30;99.90;;;;;;5106858;28;20130;-75
2023/08/01 03:23:30;;;;;;;17.67;6.47;;;15.30;99.90;;;;;;5113843;28;20040;-76
2023/08/01 03:25:55;;;;;;;18.85;6.70;;;15.30;99.90;;;;;;5096445;28;20089;-79
2023/08/01 03:28:21;;;;;;;18.95;6.80;;;15.30;99.90;;;;;;5086645;28;20036;-76
2023/08/01 03:30:49;;;;;;;19.15;7.28;;;15.40;99.90;;;;;;5093070;28;20083;-77
2023/08/01 03:33:15;;;;;;;;;;;15.30;99.90;;;;;;5093919;28;20529;-77
2023/08/01 03:35:41;;;;;;;15.70;7.35;;;15.30;99.90;;;;;;5094748;28;20393;-78
2023/08/01 03:38:07;;;;;;;17.75;7.53;;;15.30;99.90;;;;;;5103180;28;20040;-78
2023/08/01 03:40:32;;;;;;;16.85;7.03;;;15.30;99.90;;;;;;5095680;28;20078;-77
2023/08/01 03:42:58;;;;;;;20.45;7.38;;;15.40;99.90;;;;;;5108535;28;20047;-78
2023/08/01 03:45:24;;;;;;;23.95;7.85;;;15.40;99.90;;;;;;5080750;28;20040;-77
2023/08/01 03:47:53;;;;;;;22.00;7.32;;;15.40;99.90;;;;;;5097406;28;20146;-78
2023/08/01 03:50:18;;;;;;;23.98;7.93;;;15.30;99.90;;;;;;5094881;28;20075;-78
2023/08/01 03:52:45;;;;;;;26.20;7.97;;;15.40;99.90;;;;;;5099308;28;20040;-77
2023/08/01 03:55:11;;;;;;;17.63;7.40;;;15.40;99.90;;;;;;5107374;28;20086;-77
2023/08/01 03:57:38;;;;;;;20.35;7.60;;;15.40;99.90;;;;;;5081369;28;20048;-77
2023/08/01 04:00:06;;;;;;;16.27;6.55;;;15.30;99.90;;;;;;5096443;28;20046;-78
2023/08/01 04:02:34;;;;;;;15.93;6.25;;;15.30;99.90;;;;;;5095812;28;20125;-78
2023/08/01 04:04:59;;;;;;;16.33;6.13;;;15.40;99.90;;;;;;5106904;28;20039;-78
2023/08/01 04:07:25;;;;;;;16.85;6.45;;;15.30;99.90;;;;;;5094240;28;20039;-77
2023/08/01 04:09:51;;;;;;;18.27;5.50;;;15.30;99.90;;;;;;5096469;28;20460;-77
2023/08/01 04:12:16;;;;;;;19.48;5.30;;;15.30;99.90;;;;;;5110635;28;20100;-77
2023/08/01 04:14:43;;;;;;;14.32;5.35;;;15.40;99.90;;;;;;5092177;28;20127;-77
2023/08/01 04:17:09;;;;;;;12.50;4.93;;;15.30;99.90;;;;;;5075572;28;20474;-77
2023/08/01 04:19:35;;;;;;;16.45;4.88;;;15.30;99.90;;;;;;5093890;28;20077;-77
2023/08/01 04:22:00;;;;;;;8.90;3.83;;;15.20;99.90;;;;;;5095631;28;20075;-77
2023/08/01 04:24:27;;;;;;;16.77;4.80;;;15.30;99.90;;;;;;5111738;28;20075;-77
2023/08/01 04:26:53;;;;;;;19.83;4.75;;;15.30;99.90;;;;;;5113072;28;20090;-77
2023/08/01 04:29:19;;;;;;;15.25;4.70;;;15.30;99.90;;;;;;5107073;28;20040;-77
2023/08/01 04:31:45;;;;;;;15.05;4.40;;;15.20;99.90;;;;;;5092749;28;20406;-76
2023/08/01 04:34:10;;;;;;;14.93;4.65;;;15.30;99.90;;;;;;5100661;28;20417;-77
2023/08/01 04:36:37;;;;;;;12.07;4.25;;;15.30;99.90;;;;;;5115139;28;20043;-77
2023/08/01 04:39:03;;;;;;;14.02;4.45;;;15.30;99.90;;;;;;5114487;28;20044;-77
2023/08/01 04:41:30;;;;;;;25.48;4.80;;;15.30;99.90;;;;;;5103295;28;20123;-76
2023/08/01 04:43:55;;;;;;;18.70;4.50;;;15.30;99.90;;;;;;5096240;28;20051;-76
2023/08/01 04:46:21;;;;;;;11.93;4.22;;;15.30;99.90;;;;;;5097698;28;20036;-76
2023/08/01 04:48:47;;;;;;;18.80;4.63;;;15.30;99.90;;;;;;5097659;28;20409;-77
2023/08/01 04:51:12;;;;;;;16.92;4.38;;;15.30;99.90;;;;;;5097562;28;20044;-76
2023/08/01 04:53:38;;;;;;;14.25;4.30;;;15.30;99.90;;;;;;5107776;28;20377;-76
2023/08/01 04:56:03;;;;;;;14.45;3.83;;;15.30;99.90;;;;;;5118064;28;20513;-75
2023/08/01 04:58:30;;;;;;;12.77;3.83;;;15.20;99.90;;;;;;5113894;27;20074;-76
2023/08/01 05:00:56;;;;;;;15.82;4.28;;;15.30;99.90;;;;;;5117251;28;20079;-76
2023/08/01 05:03:21;;;;;;;14.07;3.83;;;15.30;99.90;;;;;;5113203;28;20122;-76
2023/08/01 05:05:50;;;;;;;16.48;3.72;;;15.60;99.90;;;;;;5097199;28;20047;-75
2023/08/01 05:08:16;;;;;;;16.65;4.53;;;15.30;99.90;;;;;;5105344;28;20036;-75
2023/08/01 05:10:41;;;;;;;28.38;4.07;;;15.40;99.90;;;;;;5114612;28;20047;-75
2023/08/01 05:13:07;;;;;;;15.27;3.70;;;14.90;99.90;;;;;;5115488;28;20043;-76
2023/08/01 05:15:32;;;;;;;8.05;3.97;;;15.50;99.90;;;;;;5111540;28;20496;-75
2023/08/01 05:17:58;;;;;;;15.50;3.72;;;15.60;99.90;;;;;;5096756;28;20448;-76
2023/08/01 05:20:25;;;;;;;18.80;4.20;;;15.70;99.90;;;;;;5113602;28;20055;-75
2023/08/01 05:22:51;;;;;;;12.82;4.40;;;15.80;99.90;;;;;;5113199;28;20051;-75
2023/08/01 05:25:17;;;;;;;15.70;3.45;;;15.80;99.90;;;;;;5112685;28;20505;-76
2023/08/01 05:27:44;;;;;;;11.90;2.95;;;15.80;99.90;;;;;;5095212;28;20040;-76
2023/08/01 05:30:10;;;;;;;11.88;3.72;;;15.80;99.90;;;;;;5110348;28;20047;-77
2023/08/01 05:32:36;;;;;;;7.95;3.47;;;15.80;99.90;;;;;;5116396;28;20043;-77
2023/08/01 05:35:02;;;;;;;16.15;3.30;;;15.80;99.90;;;;;;5117389;28;20036;-76
2023/08/01 05:37:27;;;;;;;11.15;3.00;;;15.80;99.90;;;;;;5102579;28;20121;-77
2023/08/01 05:39:53;;;;;;;14.75;3.42;;;15.70;99.90;;;;;;5113711;28;20039;-77
2023/08/01 05:42:19;;;;;;;12.20;3.95;;;15.70;99.90;;;;;;5114376;28;20099;-77
2023/08/01 05:44:46;;;;;;;12.50;3.50;;;15.70;99.90;;;;;;5108980;28;20438;-76
2023/08/01 05:47:11;;;;;;;17.15;3.20;;;15.60;99.90;;;;;;5096013;28;20051;-77
2023/08/01 05:49:38;;;;;;;15.57;3.38;;;15.70;99.90;;;;;;5096424;28;20036;-76
2023/08/01 05:52:06;;;;;;;12.55;3.05;;;15.60;99.90;;;;;;5097883;28;20112;-76
2023/08/01 05:54:32;;;;;;;10.35;3.17;;;15.60;99.90;;;;;;5116350;28;20126;-77
2023/08/01 05:56:57;;;;;;;15.32;3.20;;;15.60;99.90;;;;;;5112254;28;20464;-77
2023/08/01 05:59:23;;;;;;;10.30;3.35;;;15.60;99.90;;;;;;5104103;28;20058;-77
2023/08/01 06:01:49;;;;;;;12.07;3.22;;;15.70;99.90;;;;;;5117212;28;20389;-76
2023/08/01 06:04:14;;;;;;;10.25;3.00;;;15.70;99.90;;;;;;5108678;28;20040;-77
2023/08/01 06:06:40;;;;;;;11.93;3.38;;;15.70;99.90;;;;;;5078149;28;20048;-77
2023/08/01 06:09:08;;;;;;;9.30;3.22;;;15.80;99.90;;;;;;5083806;28;20552;-77
2023/08/01 06:11:34;;;;;;;10.13;3.60;;;15.80;99.90;;;;;;5116764;28;20130;-77
2023/08/01 06:14:00;;;;;;;9.85;4.07;;;15.80;99.90;;;;;;5114482;28;20930;-77
2023/08/01 06:16:26;;;;;;;10.20;3.00;;;15.80;99.90;;;;;;5117218;28;20040;-77
2023/08/01 06:18:51;;;;;;;7.50;3.50;;;15.80;99.90;;;;;;5109690;28;20518;-76
2023/08/01 06:21:18;;;;;;;5.25;3.28;;;15.80;99.90;;;;;;5095313;28;20093;-77
2023/08/01 06:23:43;;;;;;;14.73;3.85;;;15.80;99.90;;;;;;5097773;28;20044;-78
2023/08/01 06:26:09;;;;;;;9.25;3.22;;;15.80;99.90;;;;;;5102745;28;20043;-76
2023/08/01 06:28:35;;;;;;;7.93;3.63;;;15.80;99.90;;;;;;5097575;28;20511;-76
2023/08/01 06:31:00;;;;;;;9.07;3.25;;;15.90;99.90;;;;;;5115013;28;20069;-77
2023/08/01 06:33:26;;;;;;;8.32;3.38;;;15.80;99.90;;;;;;5115716;28;20040;-76
2023/08/01 06:35:51;;;;;;;6.90;3.17;;;15.90;99.90;;;;;;5118218;28;20064;-77
2023/08/01 06:38:17;;;;;;;9.82;3.75;;;15.90;99.90;;;;;;5107782;28;20067;-77
2023/08/01 06:40:43;;;;;;;8.18;3.17;;;15.90;99.90;;;;;;5115057;28;20085;-76
2023/08/01 06:43:08;;;;;;;9.15;2.55;;;15.90;99.90;;;;;;5121764;28;20530;-76
2023/08/01 06:45:34;;;;;;;8.95;3.08;;;15.90;99.90;;;;;;5110723;28;20036;-76
2023/08/01 06:48:00;;;;;;;15.10;3.55;;;15.90;99.90;;;;;;5104849;28;20036;-76
2023/08/01 06:50:25;;;;;;;6.85;2.72;;;15.90;99.90;;;;;;5097060;28;20048;-77
2023/08/01 06:52:52;;;;;;;7.88;2.83;;;15.90;99.90;;;;;;5121621;28;20035;-76
2023/08/01 06:55:19;;;;;;;11.60;2.60;;;15.80;99.90;;;;;;5124022;28;20051;-75
2023/08/01 06:57:45;;;;;;;5.93;2.80;;;15.90;99.90;;;;;;5101902;28;20486;-76
2023/08/01 07:00:11;;;;;;;8.50;2.78;;;15.90;99.90;;;;;;5118034;28;20046;-75
2023/08/01 07:02:39;;;;;;;10.15;2.67;;;15.90;99.90;;;;;;5121181;28;20051;-76
2023/08/01 07:05:06;;;;;;;9.30;2.42;;;16.00;99.90;;;;;;5120427;28;20043;-75
2023/08/01 07:07:32;;;;;;;7.55;2.72;;;16.10;99.90;;;;;;5100211;28;20040;-77
2023/08/01 07:10:01;;;;;;;8.93;3.13;;;16.10;99.90;;;;;;5111575;28;20039;-76
2023/08/01 07:12:26;;;;;;;10.73;2.97;;;16.20;99.90;;;;;;5117821;28;20089;-75
2023/08/01 07:14:52;;;;;;;6.43;2.80;;;16.30;99.90;;;;;;5116294;28;20043;-76
2023/08/01 07:17:17;;;;;;;7.63;2.80;;;16.20;99.90;;;;;;5113915;28;20047;-75
2023/08/01 07:19:43;;;;;;;8.02;2.50;;;16.20;99.90;;;;;;5098817;28;20074;-76
2023/08/01 07:22:09;;;;;;;9.75;2.60;;;16.20;99.90;;;;;;5100323;28;20531;-77
2023/08/01 07:24:35;;;;;;;10.82;2.47;;;16.30;99.90;;;;;;5109364;28;20033;-76
2023/08/01 07:27:00;;;;;;;13.25;3.25;;;16.30;99.90;;;;;;5098828;28;20047;-76
2023/08/01 07:29:26;;;;;;;12.77;2.72;;;16.40;99.90;;;;;;5095171;28;20127;-76
2023/08/01 07:31:51;;;;;;;10.30;2.67;;;16.50;99.90;;;;;;5112495;28;20493;-76
2023/08/01 07:34:17;;;;;;;8.65;2.22;;;16.60;99.90;;;;;;5117040;28;20039;-76
2023/08/01 07:36:43;;;;;;;12.38;3.08;;;16.60;99.90;;;;;;5116883;28;20093;-77
2023/08/01 07:39:09;;;;;;;16.70;2.40;;;16.70;99.90;;;;;;5109570;28;20039;-77
2023/08/01 07:41:35;;;;;;;4.80;1.88;;;16.60;99.90;;;;;;5118966;28;20443;-76
2023/08/01 07:44:05;;;;;;;11.68;2.53;;;16.60;99.90;;;;;;5115909;28;20040;-77
2023/08/01 07:46:31;;;;;;;8.32;2.15;;;16.50;99.90;;;;;;5112983;28;20489;-75
2023/08/01 07:48:57;;;;;;;13.50;1.95;;;16.50;99.90;;;;;;5095073;28;20100;-76
2023/08/01 07:51:23;;;;;;;12.40;2.10;;;16.40;99.90;;;;;;5094275;28;20040;-76
2023/08/01 07:53:51;;;;;;;10.68;2.33;;;16.30;99.90;;;;;;5100177;28;20061;-76
2023/08/01 07:56:17;;;;;;;9.85;2.38;;;16.30;99.90;;;;;;5095549;28;20064;-76
2023/08/01 07:58:43;;;;;;;9.93;1.98;;;16.30;99.90;;;;;;5097931;28;20481;-75
2023/08/01 08:01:09;;;;;;;11.02;2.67;;;16.40;99.90;;;;;;5114225;28;20047;-76
2023/08/01 08:03:39;;;;;;;13.98;2.40;;;16.50;99.90;;;;;;5114927;28;20127;-77
2023/08/01 08:06:05;;;;;;;9.52;2.03;;;16.80;99.90;;;;;;5115757;28;20527;-75
2023/08/01 08:08:36;;;;;;;8.13;2.22;;;17.00;99.90;;;;;;5113471;28;20036;-76
2023/08/01 08:11:02;;;;;;;10.32;1.88;;;17.10;99.90;;;;;;5112087;28;20501;-76
2023/08/01 08:13:28;;;;;;;8.40;2.15;;;17.20;99.90;;;;;;5113798;28;20043;-76
2023/08/01 08:15:57;;;;;;;10.10;1.75;;;17.30;99.90;;;;;;5104195;28;20043;-76
2023/08/01 08:18:23;;;;;;;11.32;1.90;;;17.30;99.90;;;;;;5116283;28;20054;-75
2023/08/01 08:20:49;;;;;;;7.15;2.03;;;17.20;99.90;;;;;;5113386;28;20043;-76
2023/08/01 08:23:14;;;;;;;4.85;1.70;;;17.20;99.90;;;;;;5112098;28;20051;-76
2023/08/01 08:25:50;;;;;;;6.18;1.90;;;17.20;99.90;;;;;;5113910;28;20031;-76
2023/08/01 08:28:28;;;;;;;5.82;2.28;;;17.30;99.90;;;;;;5114928;28;20047;-76
2023/08/01 08:30:54;;;;;;;8.23;1.83;;;17.20;99.90;;;;;;5114880;28;20040;-76
2023/08/01 08:33:21;;;;;;;9.40;1.90;;;17.10;99.90;;;;;;5085101;28;20486;-74
2023/08/01 08:35:46;;;;;;;8.43;1.70;;;17.00;99.90;;;;;;5092752;28;20490;-75
2023/08/01 08:38:12;;;;;;;11.50;2.33;;;16.90;99.90;;;;;;5095003;28;20143;-74
2023/08/01 08:40:43;;;;;;;7.20;1.92;;;16.80;99.90;;;;;;5103429;28;20489;-75
2023/08/01 08:43:09;;;;;;;9.32;2.28;;;16.80;99.90;;;;;;5112641;28;20048;-77
2023/08/01 08:45:39;;;;;;;9.82;2.78;;;16.70;99.90;;;;;;5114311;28;20120;-76
2023/08/01 08:48:11;;;;;;;9.07;2.33;;;16.50;99.90;;;;;;5114110;28;20043;-76
2023/08/01 08:50:37;;;;;;;8.65;2.13;;;16.50;99.90;;;;;;5109747;28;20050;-77
2023/08/01 08:53:11;;;;;;;8.70;2.22;;;16.40;99.90;;;;;;5099437;28;20048;-77
2023/08/01 08:55:37;;;;;;;7.70;1.92;;;16.40;99.90;;;;;;5114228;28;20439;-76
2023/08/01 08:58:04;;;;;;;8.82;2.35;;;16.30;99.90;;;;;;5114200;28;20083;-77
2023/08/01 09:00:30;;;;;;;10.02;2.50;;;16.30;99.90;;;;;;5110439;28;20044;-78
2023/08/01 09:02:55;;;;;;;6.93;2.38;;;16.40;99.90;;;;;;5105288;28;20050;-77
2023/08/01 09:05:27;;;;;;;8.90;2.30;;;16.40;99.90;;;;;;5113268;28;20048;-76
2023/08/01 09:07:56;;;;;;;10.07;2.10;;;16.50;99.90;;;;;;5103088;28;20039;-76
2023/08/01 09:10:22;;;;;;;12.63;2.75;;;16.50;99.90;;;;;;5112865;28;20048;-75
2023/08/01 09:12:48;;;;;;;7.22;2.78;;;16.80;99.90;;;;;;5093878;28;20043;-75
2023/08/01 09:15:14;;;;;;;11.13;2.65;;;17.00;99.90;;;;;;5095353;28;20051;-78
2023/08/01 09:17:51;;;;;;;8.77;2.10;;;17.30;99.90;;;;;;5100152;28;20493;-77
2023/08/01 09:20:17;;;;;;;5.68;2.40;;;17.30;99.90;;;;;;5113543;28;20055;-77
2023/08/01 09:22:44;;;;;;;10.55;2.50;;;17.30;99.90;;;;;;5110414;28;20047;-74
2023/08/01 09:25:11;;;;;;;6.68;2.20;;;17.30;99.90;;;;;;5107863;28;20043;-76
2023/08/01 09:27:36;;;;;;;7.38;2.00;;;17.40;99.90;;;;;;5117139;28;20043;-77
2023/08/01 09:30:15;;;;;;;9.40;2.10;;;17.40;99.90;;;;;;5114118;28;20047;-76
2023/08/01 09:32:40;;;;;;;;;;;17.40;99.90;;;;;;5102876;28;20036;-77
2023/08/01 09:35:06;;;;;;;9.93;1.98;;;17.40;99.90;;;;;;5116381;28;20438;-76
2023/08/01 09:37:42;;;;;;;8.88;2.53;;;17.40;99.90;;;;;;5120391;28;20047;-76
2023/08/01 09:40:11;;;;;;;8.27;2.00;;;17.30;99.90;;;;;;5104748;28;20123;-76
2023/08/01 09:42:45;;;;;;;6.68;2.03;;;17.40;99.90;;;;;;5116937;28;20489;-76
2023/08/01 09:45:14;;;;;;;7.32;1.70;;;17.10;99.90;;;;;;5120148;28;20035;-76
2023/08/01 09:47:41;;;;;;;10.77;2.13;;;17.00;99.90;;;;;;5119572;28;20031;-76
2023/08/01 09:50:10;;;;;;;6.88;2.15;;;16.90;99.90;;;;;;5087346;28;20055;-76
2023/08/01 09:52:35;;;;;;;5.40;1.75;;;16.80;99.90;;;;;;5101415;28;20048;-76
2023/08/01 09:55:01;;;;;;;6.15;1.58;;;16.90;99.90;;;;;;5110561;28;20040;-77
2023/08/01 09:57:29;;;;;;;8.18;2.10;;;17.00;99.90;;;;;;5118597;28;20040;-77
2023/08/01 09:59:57;;;;;;;5.85;1.75;;;17.20;99.90;;;;;;5096567;28;20071;-77
2023/08/01 10:02:26;;;;;;;5.53;1.98;;;17.40;99.90;;;;;;5098946;28;20044;-75
2023/08/01 10:04:54;;;;;;;9.40;2.00;;;17.70;99.90;;;;;;5117071;27;20044;-78
2023/08/01 10:07:30;;;;;;;8.45;2.10;;;17.90;99.90;;;;;;5098135;28;20036;-76
2023/08/01 10:09:58;;;;;;;6.43;1.77;;;18.00;99.90;;;;;;5079337;28;20055;-75
2023/08/01 10:12:25;;;;;;;;;;;18.00;99.90;;;;;;5104756;28;20478;-76
2023/08/01 10:14:52;;;;;;;9.10;2.28;;;18.10;99.90;;;;;;5101354;28;20374;-77
2023/08/01 10:17:19;;;;;;;5.72;1.60;;;18.30;99.90;;;;;;5080042;28;20040;-77
2023/08/01 10:19:46;;;;;;;6.65;1.60;;;18.50;99.90;;;;;;5113758;28;20447;-76
2023/08/01 10:22:13;;;;;;;5.88;1.88;;;18.70;99.90;;;;;;5105826;28;20055;-75
2023/08/01 10:24:39;;;;;;;5.78;1.75;;;18.80;99.90;;;;;;5114407;28;20060;-76
2023/08/01 10:27:18;;;;;;;7.55;2.08;;;18.70;99.90;;;;;;5116146;28;20123;-76
2023/08/01 10:29:44;;;;;;;7.80;1.90;;;18.50;99.90;;;;;;5108227;28;20046;-76
2023/08/01 10:32:10;;;;;;;8.25;1.65;;;18.40;99.90;;;;;;5099024;28;20040;-75
2023/08/01 10:34:39;;;;;;;5.15;1.80;;;18.20;99.90;;;;;;5114657;28;20044;-77
2023/08/01 10:37:05;;;;;;;9.05;2.33;;;18.10;99.90;;;;;;5115537;28;20570;-78
2023/08/01 10:39:30;;;;;;;9.00;2.15;;;18.00;99.90;;;;;;5116957;28;20095;-77
2023/08/01 10:42:01;;;;;;;6.20;1.90;;;18.00;99.90;;;;;;5113640;28;20100;-76
2023/08/01 10:44:27;;;;;;;18.52;2.67;;;18.10;99.90;;;;;;5116014;27;20112;-75
2023/08/01 10:46:55;;;;;;;12.30;3.53;;;18.20;99.90;;;;;;5103158;28;20039;-76
2023/08/01 10:49:33;;;;;;;7.20;2.15;;;18.50;99.90;;;;;;5104525;28;20051;-77
2023/08/01 10:51:58;;;;;;;10.00;2.65;;;18.70;99.90;;;;;;5077457;28;20047;-78
2023/08/01 10:54:25;;;;;;;6.95;1.70;;;19.00;99.90;;;;;;5114538;28;20118;-78
2023/08/01 10:57:00;;;;;;;9.05;1.92;;;19.30;99.90;;;;;;5114004;28;20027;-76
2023/08/01 10:59:26;;;;;;;5.65;1.63;;;19.30;99.90;;;;;;5115115;27;20441;-76
2023/08/01 11:01:53;;;;;;;10.52;1.85;;;19.10;99.90;;;;;;5109862;28;20036;-77
2023/08/01 11:04:21;;;;;;;10.32;1.73;;;18.90;99.90;;;;;;5108973;28;20512;-76
2023/08/01 11:06:49;;;;;;;13.23;2.40;;;18.70;99.90;;;;;;5115617;28;20392;-78
2023/08/01 11:09:23;;;;;;;6.25;1.73;;;18.50;99.90;;;;;;5115020;28;20039;-77
2023/08/01 11:11:51;;;;;;;4.88;1.65;;;18.70;99.90;;;;;;5118716;28;20126;-76
2023/08/01 11:14:19;;;;;;;;;;;19.00;99.90;;;;;;5114440;28;20051;-77
2023/08/01 11:16:45;;;;;;;5.57;1.45;;;19.20;99.90;;;;;;5108658;28;20003;-77
2023/08/01 11:19:21;;;;;;;7.90;1.55;;;19.30;99.90;;;;;;5116508;28;20082;-77
2023/08/01 11:21:46;;;;;;;8.55;2.03;;;19.50;99.90;;;;;;5114490;28;20049;-76
2023/08/01 11:24:12;;;;;;;7.13;2.10;;;19.60;99.90;;;;;;5116986;28;20046;-75
2023/08/01 11:26:46;;;;;;;6.88;1.67;;;19.60;99.90;;;;;;5098764;28;20055;-76
2023/08/01 11:29:12;;;;;;;7.55;2.10;;;19.60;99.90;;;;;;5113671;28;20112;-76
2023/08/01 11:31:39;;;;;;;7.30;1.65;;;19.50;99.90;;;;;;5117222;28;20087;-76
2023/08/01 11:34:05;;;;;;;9.75;2.90;;;19.50;99.90;;;;;;5111325;28;20048;-77
2023/08/01 11:36:31;;;;;;;7.38;1.92;;;19.40;99.90;;;;;;5115649;28;20498;-76
2023/08/01 11:39:01;;;;;;;5.97;1.20;;;19.50;99.90;;;;;;5095176;28;20154;-76
2023/08/01 11:41:27;;;;;;;5.32;1.70;;;19.60;99.90;;;;;;5093807;28;20051;-76
2023/08/01 11:43:56;;;;;;;5.75;1.33;;;19.80;99.90;;;;;;5111278;28;20126;-77
2023/08/01 11:46:22;;;;;;;7.30;1.65;;;20.20;99.90;;;;;;5095300;28;20044;-76
2023/08/01 11:48:51;;;;;;;7.18;1.58;;;20.30;99.90;;;;;;5102972;28;20047;-77
2023/08/01 11:51:17;;;;;;;3.90;1.40;;;20.20;99.90;;;;;;5115661;28;20100;-77
2023/08/01 11:53:43;;;;;;;6.88;1.73;;;20.20;99.90;;;;;;5115633;28;20057;-76
2023/08/01 11:56:19;;;;;;;4.22;1.52;;;20.20;99.90;;;;;;5099926;28;20044;-76
2023/08/01 11:58:44;;;;;;;5.22;1.65;;;20.20;99.90;;;;;;5091214;28;20554;-77
2023/08/01 12:01:11;;;;;;;4.13;1.60;;;20.30;99.90;;;;;;5112653;28;20123;-77
2023/08/01 12:03:54;;;;;;;10.55;1.90;;;20.20;99.90;;;;;;5102227;28;20083;-76
2023/08/01 12:06:22;;;;;;;5.38;1.40;;;20.00;99.90;;;;;;5097221;28;20032;-77
2023/08/01 12:08:50;;;;;;;5.82;1.45;;;19.80;99.90;;;;;;5093919;28;20051;-77
2023/08/01 12:11:27;;;;;;;;;;;19.60;99.90;;;;;;5108320;28;20043;-78
2023/08/01 12:14:11;;;;;;;4.72;1.40;;;19.60;99.90;;;;;;5112050;28;19927;-76
2023/08/01 12:16:42;;;;;;;6.40;2.10;;;19.50;99.90;;;;;;5112099;28;20054;-78
2023/08/01 12:19:09;;;;;;;8.52;1.90;;;19.40;99.90;;;;;;5113199;28;20086;-74
2023/08/01 12:21:35;;;;;;;6.00;1.30;;;19.40;99.90;;;;;;5108201;28;20473;-75
2023/08/01 12:24:01;;;;;;;10.68;1.70;;;19.30;99.90;;;;;;5111841;28;20278;-76
2023/08/01 12:26:30;;;;;;;8.02;1.90;;;19.20;99.90;;;;;;5112772;28;20047;-75
2023/08/01 12:28:55;;;;;;;9.32;1.85;;;19.30;99.90;;;;;;5112755;28;20035;-75
2023/08/01 12:31:22;;;;;;;9.32;1.90;;;19.60;99.90;;;;;;5107120;28;20032;-75
2023/08/01 12:33:48;;;;;;;9.13;1.90;;;19.70;99.90;;;;;;5093403;28;20041;-75
2023/08/01 12:36:15;;;;;;;12.52;1.88;;;19.70;99.90;;;;;;5092150;28;20466;-75
2023/08/01 12:38:41;;;;;;;6.15;1.75;;;19.90;99.90;;;;;;5093683;28;20124;-76
2023/08/01 12:41:07;;;;;;;7.35;1.80;;;20.30;99.90;;;;;;5093150;28;20122;-75